This is the latest recevied weather packets stored in our database for station/object HP1CDW-13. If no packets are shown the sender has not sent any weather packets the latest 10 day(s).
| Time | Temp. | Humidity | Pressure | Rain* | Wind** | Luminosity | Snow |
|---|---|---|---|---|---|---|---|
| 1777565090 | 31.67° C | 71% | 1011.6 hPa | 0 mm | - | - | - |
| 1777564490 | 31.11° C | 73% | 1011.6 hPa | 0 mm | - | - | - |
| 1777563890 | 30.56° C | 75% | 1011.7 hPa | 0 mm | - | - | - |
| 1777563290 | 31.11° C | 75% | 1011.7 hPa | 0 mm | - | - | - |
| 1777562690 | 31.11° C | 74% | 1011.8 hPa | 0 mm | - | - | - |
| 1777562090 | 31.67° C | 72% | 1012 hPa | 0 mm | - | - | - |
| 1777561490 | 31.11° C | 74% | 1011.8 hPa | 0 mm | - | - | - |
| 1777560890 | 31.11° C | 74% | 1012 hPa | 0 mm | - | - | - |
| 1777560290 | 30.56° C | 76% | 1012.2 hPa | 0 mm | - | - | - |
| 1777559690 | 30.56° C | 77% | 1011.9 hPa | 0 mm | - | - | - |
| 1777559090 | 30° C | 78% | 1012.1 hPa | 0 mm | - | - | - |
| 1777558490 | 30° C | 78% | 1011.8 hPa | 0 mm | - | - | - |
| 1777557890 | 29.44° C | 80% | 1012.1 hPa | 0 mm | - | - | - |
| 1777557290 | 29.44° C | 79% | 1012 hPa | 0 mm | - | - | - |
| 1777556690 | 28.89° C | 82% | 1012.2 hPa | 0 mm | - | - | - |
| 1777556090 | 28.33° C | 83% | 1011.8 hPa | 0 mm | - | - | - |
| 1777555490 | 28.33° C | 84% | 1011.8 hPa | 0 mm | - | - | - |
| 1777554890 | 27.78° C | 86% | 1012 hPa | 0 mm | - | - | - |
| 1777554290 | 27.22° C | 87% | 1012 hPa | 0 mm | - | - | - |
| 1777553690 | 27.22° C | 87% | 1012 hPa | 0 mm | - | - | - |
| 1777553090 | 27.22° C | 88% | 1011.7 hPa | 0 mm | - | - | - |
| 1777552490 | 26.67° C | 89% | 1011.7 hPa | 0 mm | - | - | - |
| 1777551890 | 26.67° C | 90% | 1011.6 hPa | 0 mm | - | - | - |
| 1777551290 | 26.11° C | 91% | 1011.5 hPa | 0 mm | - | - | - |
| 1777550690 | 26.11° C | 92% | 1011.5 hPa | 0 mm | - | - | - |
* Rain latest hour (hover to see other rain measurements)
** Current wind speed in m/s (hover to see current wind gust speed)